Time;durP1;ratioP1;P1;durP2;ratioP2;P2;SDS_P1;SDS_P2;PMS_P1;PMS_P2;Temp;Humidity;BMP_temperature;BMP_pressure;BME280_temperature;BME280_humidity;BME280_pressure;Samples;Min_cycle;Max_cycle;Signal;HPM_P1;HPM_P2
2022/06/15 00:01:54;;;;;;;9.18;4.97;;;13.00;99.90;;;;;;5029023;28;20631;-81
2022/06/15 00:04:19;;;;;;;6.25;4.88;;;13.00;99.90;;;;;;5024814;28;20041;-82
2022/06/15 00:06:45;;;;;;;6.30;3.95;;;13.20;99.90;;;;;;5027586;28;20061;-82
2022/06/15 00:09:11;;;;;;;8.48;4.82;;;13.90;99.90;;;;;;5029001;28;20049;-81
2022/06/15 00:11:40;;;;;;;8.77;4.50;;;13.10;99.90;;;;;;5030392;28;20037;-81
2022/06/15 00:14:14;;;;;;;6.85;4.57;;;13.10;99.90;;;;;;5013380;28;20047;-82
2022/06/15 00:16:40;;;;;;;5.82;4.20;;;13.10;99.90;;;;;;5034710;28;20366;-81
2022/06/15 00:19:07;;;;;;;6.85;4.18;;;13.10;99.90;;;;;;5036569;28;20142;-82
2022/06/15 00:21:33;;;;;;;6.05;4.30;;;13.10;99.90;;;;;;5036549;28;20064;-81
2022/06/15 00:23:58;;;;;;;7.57;4.57;;;13.00;99.90;;;;;;5011781;28;20045;-81
2022/06/15 00:26:25;;;;;;;7.78;4.85;;;12.90;99.90;;;;;;5035778;28;20052;-82
2022/06/15 00:28:51;;;;;;;6.70;4.35;;;12.90;99.90;;;;;;5012672;28;20313;-82
2022/06/15 00:31:18;;;;;;;9.45;4.38;;;12.90;99.90;;;;;;5041228;28;20049;-82
2022/06/15 00:33:45;;;;;;;6.35;4.40;;;12.50;99.90;;;;;;5028069;28;20053;-82
2022/06/15 00:36:14;;;;;;;11.25;4.47;;;12.90;99.90;;;;;;5039382;28;20126;-81
2022/06/15 00:38:53;;;;;;;7.78;4.40;;;12.90;99.90;;;;;;5031212;28;20175;-82
2022/06/15 00:41:36;;;;;;;8.15;4.35;;;12.90;99.90;;;;;;5028459;28;20108;-81
2022/06/15 00:44:18;;;;;;;9.02;4.00;;;12.80;99.90;;;;;;5031023;28;20469;-81
2022/06/15 00:46:46;;;;;;;6.43;4.18;;;12.80;99.90;;;;;;5028751;28;20561;-81
2022/06/15 00:49:24;;;;;;;5.60;4.50;;;13.60;99.90;;;;;;5034061;28;20043;-82
2022/06/15 00:51:53;;;;;;;6.03;3.97;;;12.80;99.90;;;;;;5035109;28;20041;-82
2022/06/15 00:54:19;;;;;;;4.43;3.83;;;12.90;99.90;;;;;;5041618;28;20041;-81
2022/06/15 00:56:45;;;;;;;6.90;3.95;;;12.90;99.90;;;;;;5035740;28;20045;-81
2022/06/15 00:59:29;;;;;;;6.13;3.65;;;12.80;99.90;;;;;;5039096;28;20055;-81
2022/06/15 01:01:54;;;;;;;8.93;4.00;;;12.90;99.90;;;;;;5017697;28;20475;-81
2022/06/15 01:04:21;;;;;;;8.45;4.43;;;12.90;99.90;;;;;;5038645;28;20069;-82
2022/06/15 01:07:15;;;;;;;5.88;3.97;;;12.80;99.90;;;;;;5037342;28;20138;-82
2022/06/15 01:09:53;;;;;;;5.88;4.07;;;12.80;99.90;;;;;;5031098;28;20477;-81
2022/06/15 01:12:46;;;;;;;12.57;4.85;;;13.10;99.90;;;;;;5035352;28;20669;-81
2022/06/15 01:15:21;;;;;;;8.10;4.50;;;12.70;99.90;;;;;;5037025;28;20052;-81
2022/06/15 01:17:49;;;;;;;9.15;4.43;;;12.70;99.90;;;;;;5031782;28;20167;-81
2022/06/15 01:20:33;;;;;;;6.80;4.32;;;12.70;99.90;;;;;;5038630;28;20045;-80
2022/06/15 01:23:26;;;;;;;4.35;3.50;;;12.70;99.90;;;;;;5021070;28;20159;-81
2022/06/15 01:26:17;;;;;;;6.75;4.05;;;12.80;99.90;;;;;;5030730;28;20053;-81
2022/06/15 01:29:16;;;;;;;7.10;4.13;;;12.80;99.90;;;;;;5047915;28;20052;-81
2022/06/15 01:31:53;;;;;;;6.43;3.88;;;12.80;99.90;;;;;;4984237;28;20076;-81
2022/06/15 01:34:27;;;;;;;7.03;3.38;;;12.90;99.90;;;;;;5034492;28;20405;-81
2022/06/15 01:37:02;;;;;;;;;;;12.70;99.90;;;;;;5040046;28;20124;-81
2022/06/15 01:39:33;;;;;;;4.97;3.72;;;12.70;99.90;;;;;;5037094;28;20036;-80
2022/06/15 01:42:16;;;;;;;5.10;4.05;;;12.70;99.90;;;;;;5044757;28;20501;-81
2022/06/15 01:44:57;;;;;;;6.22;3.58;;;11.70;99.90;;;;;;5015227;28;20041;-81
2022/06/15 01:47:26;;;;;;;6.78;3.95;;;13.70;99.90;;;;;;5031959;28;20044;-81
2022/06/15 01:50:02;;;;;;;5.30;3.88;;;12.70;99.90;;;;;;5020635;28;20055;-82
2022/06/15 01:52:36;;;;;;;8.07;3.55;;;12.70;99.90;;;;;;5038021;28;20033;-82
2022/06/15 01:55:22;;;;;;;7.45;4.03;;;13.20;99.90;;;;;;5035576;28;20060;-83
2022/06/15 01:57:51;;;;;;;8.32;4.75;;;12.70;99.90;;;;;;5037034;28;20049;-82
2022/06/15 02:00:18;;;;;;;4.07;3.67;;;12.60;99.90;;;;;;5036933;28;20473;-82
2022/06/15 02:03:17;;;;;;;6.82;3.80;;;12.60;99.90;;;;;;5041554;28;20080;-81
2022/06/15 02:05:56;;;;;;;3.75;3.30;;;12.60;99.90;;;;;;5036548;28;20041;-81
2022/06/15 02:08:52;;;;;;;3.70;3.25;;;12.60;99.90;;;;;;5029883;28;20041;-82
2022/06/15 02:11:29;;;;;;;4.78;3.78;;;12.50;99.90;;;;;;5041303;28;20044;-82
2022/06/15 02:14:26;;;;;;;8.48;4.32;;;12.50;99.90;;;;;;5033180;28;20828;-82
2022/06/15 02:17:20;;;;;;;5.18;3.55;;;12.50;99.90;;;;;;5045863;28;20408;-82
2022/06/15 02:19:54;;;;;;;5.85;3.90;;;12.40;99.90;;;;;;5028904;28;20549;-82
2022/06/15 02:22:21;;;;;;;;;;;12.40;99.90;;;;;;5038208;28;20041;-81
2022/06/15 02:24:51;;;;;;;3.97;3.55;;;12.20;99.90;;;;;;5034363;28;20007;-81
2022/06/15 02:27:18;;;;;;;5.00;3.17;;;12.30;99.90;;;;;;5036688;28;20157;-82
2022/06/15 02:29:47;;;;;;;5.90;3.78;;;12.30;99.90;;;;;;5028207;28;20053;-81
2022/06/15 02:32:18;;;;;;;5.50;3.67;;;12.30;99.90;;;;;;5038992;28;20034;-82
2022/06/15 02:34:44;;;;;;;9.27;4.97;;;13.40;99.90;;;;;;5013651;28;20053;-81
2022/06/15 02:37:11;;;;;;;8.93;4.00;;;12.30;99.90;;;;;;5019197;28;20056;-82
2022/06/15 02:39:37;;;;;;;6.38;4.03;;;12.20;99.90;;;;;;5027505;28;20045;-81
2022/06/15 02:42:21;;;;;;;6.20;3.83;;;12.20;99.90;;;;;;5040623;28;20063;-80
2022/06/15 02:44:49;;;;;;;8.82;3.97;;;12.20;99.90;;;;;;5004748;28;20041;-82
2022/06/15 02:47:16;;;;;;;6.05;3.65;;;12.10;99.90;;;;;;5030264;28;20045;-82
2022/06/15 02:49:44;;;;;;;6.80;3.75;;;12.10;99.90;;;;;;5026261;28;20099;-82
2022/06/15 02:52:13;;;;;;;5.13;3.60;;;13.00;99.90;;;;;;5035344;28;20489;-82
2022/06/15 02:54:48;;;;;;;7.20;4.47;;;12.20;99.90;;;;;;5005215;28;20139;-81
2022/06/15 02:57:17;;;;;;;4.57;3.97;;;12.10;99.90;;;;;;5036659;28;20053;-81
2022/06/15 02:59:45;;;;;;;5.63;4.20;;;12.10;99.90;;;;;;5015709;28;20095;-82
2022/06/15 03:02:14;;;;;;;5.43;4.03;;;12.10;99.90;;;;;;5034164;28;20042;-81
2022/06/15 03:04:45;;;;;;;6.85;4.13;;;12.10;99.90;;;;;;5040420;28;20041;-82
2022/06/15 03:07:13;;;;;;;3.47;3.22;;;12.10;99.90;;;;;;5047014;28;20049;-81
2022/06/15 03:09:40;;;;;;;5.97;3.85;;;11.80;99.90;;;;;;5027465;28;20051;-81
2022/06/15 03:12:06;;;;;;;5.82;3.90;;;12.10;99.90;;;;;;5033897;28;20042;-82
2022/06/15 03:14:32;;;;;;;7.93;5.25;;;12.00;99.90;;;;;;5039099;28;20512;-81
2022/06/15 03:16:59;;;;;;;8.65;6.10;;;12.00;99.90;;;;;;5027920;28;20124;-82
2022/06/15 03:19:26;;;;;;;8.10;5.90;;;13.50;99.90;;;;;;5021178;28;20489;-81
2022/06/15 03:21:52;;;;;;;8.93;4.93;;;12.00;99.90;;;;;;5034273;28;20073;-82
2022/06/15 03:24:18;;;;;;;7.55;4.35;;;12.00;99.90;;;;;;5029233;28;20106;-82
2022/06/15 03:26:44;;;;;;;6.00;4.13;;;11.90;99.90;;;;;;5002204;28;20053;-82
2022/06/15 03:29:11;;;;;;;5.13;4.07;;;13.40;99.90;;;;;;5006276;28;20486;-81
2022/06/15 03:31:46;;;;;;;6.47;4.68;;;12.00;99.90;;;;;;5030952;28;20054;-81
2022/06/15 03:34:12;;;;;;;6.05;4.57;;;11.90;99.90;;;;;;4995017;28;20489;-82
2022/06/15 03:36:41;;;;;;;5.40;4.25;;;11.90;99.90;;;;;;5032123;28;20132;-82
2022/06/15 03:39:06;;;;;;;6.47;4.20;;;11.90;99.90;;;;;;5026966;28;20063;-82
2022/06/15 03:41:32;;;;;;;5.13;4.47;;;11.90;99.90;;;;;;5032791;28;20045;-82
2022/06/15 03:43:58;;;;;;;6.97;4.00;;;11.90;99.90;;;;;;5029078;28;20056;-82
2022/06/15 03:46:23;;;;;;;6.45;4.80;;;11.90;99.90;;;;;;5031301;28;20048;-82
2022/06/15 03:48:50;;;;;;;5.55;4.45;;;13.20;99.90;;;;;;5038072;28;20048;-81
2022/06/15 03:51:19;;;;;;;6.32;4.43;;;12.00;99.90;;;;;;5028911;28;20037;-81
2022/06/15 03:53:48;;;;;;;7.05;4.78;;;13.50;99.90;;;;;;5033196;28;20037;-81
2022/06/15 03:56:14;;;;;;;8.15;5.07;;;13.20;99.90;;;;;;5022911;28;20048;-82
2022/06/15 03:58:40;;;;;;;4.55;4.15;;;12.10;99.90;;;;;;5000624;28;20049;-82
2022/06/15 04:01:05;;;;;;;4.30;3.72;;;12.10;99.90;;;;;;5026640;28;20045;-81
2022/06/15 04:03:31;;;;;;;8.82;4.55;;;12.50;99.90;;;;;;5031809;28;20037;-82
2022/06/15 04:05:58;;;;;;;6.05;4.72;;;12.10;99.90;;;;;;5027437;28;20425;-81
2022/06/15 04:08:38;;;;;;;6.50;3.80;;;12.20;99.90;;;;;;5044755;28;20053;-82
2022/06/15 04:14:00;;;;;;;6.13;4.60;;;12.30;99.90;;;;;;5031626;28;20061;-80
2022/06/15 04:16:26;;;;;;;8.13;4.80;;;12.30;99.90;;;;;;5017912;28;20131;-81
2022/06/15 04:18:52;;;;;;;10.18;4.88;;;12.30;99.90;;;;;;5034675;28;20129;-81
2022/06/15 04:21:24;;;;;;;6.45;4.47;;;12.30;99.90;;;;;;5039876;28;20547;-81
2022/06/15 04:23:52;;;;;;;6.43;4.90;;;12.30;99.90;;;;;;5016203;28;20049;-83
2022/06/15 04:26:24;;;;;;;7.25;4.97;;;13.30;99.90;;;;;;5027256;28;20127;-82
2022/06/15 04:28:52;;;;;;;7.88;4.65;;;12.30;99.90;;;;;;5032541;28;20511;-83
2022/06/15 04:31:21;;;;;;;9.75;4.25;;;12.30;99.90;;;;;;5034278;28;20037;-82
2022/06/15 04:33:48;;;;;;;7.68;4.25;;;11.90;99.90;;;;;;5020366;28;20045;-82
2022/06/15 04:36:15;;;;;;;7.65;4.43;;;12.10;99.90;;;;;;5033090;28;20068;-82
2022/06/15 04:38:41;;;;;;;10.65;4.32;;;12.30;99.90;;;;;;4685370;28;10000442;-78
2022/06/15 04:41:07;;;;;;;6.93;3.33;;;12.40;99.90;;;;;;5028848;28;20032;-78
2022/06/15 04:43:33;;;;;;;4.22;3.40;;;12.50;99.90;;;;;;5033120;28;20072;-77
2022/06/15 04:45:58;;;;;;;6.70;4.72;;;12.50;99.90;;;;;;5017690;28;20037;-77
2022/06/15 04:48:24;;;;;;;18.23;11.38;;;12.50;99.90;;;;;;5028784;28;20056;-76
2022/06/15 04:51:07;;;;;;;4.40;3.72;;;13.50;99.90;;;;;;5031232;28;20041;-78
2022/06/15 04:53:42;;;;;;;10.40;4.30;;;13.60;99.90;;;;;;5012453;28;20029;-76
2022/06/15 04:56:07;;;;;;;6.38;3.17;;;13.50;99.90;;;;;;5012180;28;20040;-78
2022/06/15 04:58:33;;;;;;;5.43;3.10;;;12.70;99.90;;;;;;5021944;28;20037;-77
2022/06/15 05:01:00;;;;;;;5.28;3.15;;;12.80;99.90;;;;;;5008404;28;20105;-78
2022/06/15 05:03:25;;;;;;;10.60;3.83;;;13.10;99.90;;;;;;5034191;28;20405;-78
2022/06/15 05:05:56;;;;;;;5.13;3.25;;;12.90;99.90;;;;;;5024988;28;20056;-78
2022/06/15 05:08:27;;;;;;;6.15;3.20;;;13.00;99.90;;;;;;5030009;28;20417;-78
2022/06/15 05:10:53;;;;;;;9.82;3.90;;;13.80;99.90;;;;;;5026525;28;20041;-78
2022/06/15 05:13:18;;;;;;;8.50;4.40;;;13.10;99.90;;;;;;5037914;28;20176;-78
2022/06/15 05:15:44;;;;;;;33.88;22.95;;;13.00;99.90;;;;;;5020424;28;20087;-77
2022/06/15 05:18:11;;;;;;;25.25;15.13;;;13.00;99.90;;;;;;5038959;28;20064;-77
2022/06/15 05:20:42;;;;;;;12.38;5.78;;;13.10;99.90;;;;;;5019267;28;20572;-77
2022/06/15 05:23:13;;;;;;;9.80;4.75;;;13.10;99.90;;;;;;5025767;28;20091;-78
2022/06/15 05:25:38;;;;;;;7.15;4.20;;;13.20;99.90;;;;;;5039514;28;20744;-77
2022/06/15 05:28:05;;;;;;;11.05;4.28;;;13.90;99.90;;;;;;5031034;28;20040;-78
2022/06/15 05:30:31;;;;;;;7.53;4.15;;;13.20;99.90;;;;;;5026659;28;20103;-77
2022/06/15 05:32:56;;;;;;;8.07;4.28;;;14.80;99.90;;;;;;5023852;28;20073;-77
2022/06/15 05:35:22;;;;;;;6.22;5.00;;;14.40;99.90;;;;;;5033741;28;20037;-78
2022/06/15 05:37:47;;;;;;;12.82;8.30;;;12.50;99.90;;;;;;5008810;28;20487;-79
2022/06/15 05:40:16;;;;;;;24.42;14.52;;;14.30;99.90;;;;;;5031788;28;20737;-79
2022/06/15 05:42:42;;;;;;;9.45;6.60;;;13.40;99.90;;;;;;5023802;28;20049;-79
2022/06/15 05:45:08;;;;;;;14.60;9.48;;;14.40;99.90;;;;;;5023200;28;20029;-78
2022/06/15 05:47:36;;;;;;;10.57;5.80;;;13.50;99.90;;;;;;5029524;28;20503;-78
2022/06/15 05:50:02;;;;;;;11.90;5.47;;;15.20;99.90;;;;;;5039406;28;20060;-78
2022/06/15 05:52:28;;;;;;;7.25;4.60;;;13.60;99.90;;;;;;5039728;28;20049;-78
2022/06/15 05:54:56;;;;;;;7.88;4.53;;;13.70;99.90;;;;;;5030473;28;20048;-78
2022/06/15 05:57:23;;;;;;;7.70;4.22;;;13.70;99.90;;;;;;5043371;28;20454;-78
2022/06/15 05:59:50;;;;;;;7.35;4.75;;;13.90;99.90;;;;;;5039389;28;20045;-77
2022/06/15 06:02:18;;;;;;;5.45;3.80;;;13.80;99.90;;;;;;5043552;28;20083;-77
2022/06/15 06:04:44;;;;;;;8.57;3.85;;;13.90;99.90;;;;;;5037412;28;20138;-77
2022/06/15 06:07:13;;;;;;;7.57;3.60;;;14.00;99.90;;;;;;5041992;28;20080;-78
2022/06/15 06:09:39;;;;;;;5.30;3.70;;;14.00;99.90;;;;;;5024296;28;20072;-80
2022/06/15 06:12:07;;;;;;;11.60;4.20;;;14.10;99.90;;;;;;5039196;28;20114;-78
2022/06/15 06:14:32;;;;;;;8.60;4.00;;;14.20;99.90;;;;;;5038521;28;20037;-79
2022/06/15 06:16:58;;;;;;;6.45;3.50;;;15.20;99.90;;;;;;5037083;28;20445;-78
2022/06/15 06:19:24;;;;;;;9.40;3.80;;;14.50;99.90;;;;;;5043274;28;20385;-77
2022/06/15 06:21:50;;;;;;;12.23;4.07;;;14.50;99.90;;;;;;5037948;28;20051;-77
2022/06/15 06:24:15;;;;;;;7.35;3.80;;;13.50;99.90;;;;;;5020844;28;20037;-77
2022/06/15 06:26:45;;;;;;;7.95;3.70;;;14.50;99.90;;;;;;5040524;28;20033;-77
2022/06/15 06:29:16;;;;;;;8.90;5.13;;;14.10;99.90;;;;;;5030784;28;20041;-79
2022/06/15 06:31:42;;;;;;;31.45;22.08;;;15.00;99.90;;;;;;5044467;28;20116;-79
2022/06/15 06:34:09;;;;;;;14.88;7.32;;;14.70;99.90;;;;;;5037467;28;20456;-79
2022/06/15 06:36:44;;;;;;;11.57;5.30;;;14.60;99.90;;;;;;5041868;28;20062;-77
2022/06/15 06:39:24;;;;;;;10.13;4.32;;;14.60;99.90;;;;;;5034273;28;20041;-78
2022/06/15 06:41:50;;;;;;;12.02;4.60;;;14.60;99.90;;;;;;5043899;28;20045;-78
2022/06/15 06:44:18;;;;;;;7.80;4.68;;;14.60;99.90;;;;;;5038650;28;20056;-78
2022/06/15 06:46:49;;;;;;;9.82;3.83;;;14.70;99.90;;;;;;5034373;28;20544;-79
2022/06/15 06:49:15;;;;;;;5.47;3.42;;;14.70;99.90;;;;;;5041254;28;20037;-80
2022/06/15 06:51:43;;;;;;;11.73;3.78;;;14.80;99.90;;;;;;5039067;28;20033;-78
2022/06/15 06:54:10;;;;;;;5.97;2.75;;;14.90;99.90;;;;;;5043860;28;20037;-77
2022/06/15 06:56:36;;;;;;;7.40;2.45;;;16.30;99.90;;;;;;5031796;28;20397;-77
2022/06/15 06:59:06;;;;;;;5.60;2.13;;;16.00;99.90;;;;;;5041491;28;20067;-78
2022/06/15 07:01:33;;;;;;;10.90;2.70;;;16.40;99.90;;;;;;5039964;28;20039;-77
2022/06/15 07:03:59;;;;;;;9.00;2.50;;;15.10;99.90;;;;;;5020331;28;20594;-77
2022/06/15 07:06:27;;;;;;;9.85;2.15;;;15.10;99.90;;;;;;5040326;28;20053;-79
2022/06/15 07:08:53;;;;;;;8.27;2.30;;;15.50;99.90;;;;;;5039394;28;20108;-79
2022/06/15 07:11:19;;;;;;;9.32;2.33;;;15.40;99.90;;;;;;5043453;28;20898;-79
2022/06/15 07:13:46;;;;;;;5.00;1.50;;;15.50;99.90;;;;;;5039641;28;20052;-80
2022/06/15 07:16:16;;;;;;;6.93;1.73;;;15.60;99.90;;;;;;5033291;28;20080;-80
2022/06/15 07:18:45;;;;;;;5.60;1.75;;;15.90;99.90;;;;;;5043644;28;20312;-81
2022/06/15 07:21:19;;;;;;;8.98;1.55;;;15.70;99.90;;;;;;5036877;28;20045;-79
2022/06/15 07:23:50;;;;;;;7.63;2.47;;;15.80;99.90;;;;;;5026421;28;20579;-79
2022/06/15 07:26:20;;;;;;;11.40;2.40;;;16.40;99.90;;;;;;5035988;28;20493;-79
2022/06/15 07:28:46;;;;;;;5.30;1.65;;;15.90;99.90;;;;;;5043429;28;20409;-78
2022/06/15 07:31:35;;;;;;;8.50;1.92;;;16.10;99.90;;;;;;5037543;28;20041;-79
2022/06/15 07:34:01;;;;;;;6.82;1.50;;;16.20;99.90;;;;;;5039784;28;20045;-79
2022/06/15 07:36:26;;;;;;;4.57;1.90;;;16.40;99.90;;;;;;5041856;28;20124;-78
2022/06/15 07:38:54;;;;;;;5.63;2.13;;;16.30;99.90;;;;;;5039032;28;20128;-79
2022/06/15 07:41:21;;;;;;;4.28;1.48;;;16.30;99.90;;;;;;5043930;28;20073;-78
2022/06/15 07:43:47;;;;;;;2.83;1.20;;;16.30;99.90;;;;;;5036992;28;20045;-78
2022/06/15 07:46:13;;;;;;;3.92;1.10;;;16.30;99.90;;;;;;5045865;28;20036;-80
2022/06/15 07:51:36;;;;;;;7.43;2.20;;;16.40;99.90;;;;;;5033674;28;20063;-78
2022/06/15 07:54:04;;;;;;;8.35;2.65;;;16.40;99.90;;;;;;5038048;28;20099;-78
2022/06/15 07:56:30;;;;;;;31.27;19.80;;;16.50;99.90;;;;;;5025704;28;20178;-78
2022/06/15 07:58:56;;;;;;;6.85;3.00;;;16.50;99.90;;;;;;5036516;28;20053;-78
2022/06/15 08:01:22;;;;;;;4.47;2.03;;;16.50;99.90;;;;;;5018092;28;20033;-78
2022/06/15 08:03:48;;;;;;;8.55;2.10;;;16.90;99.90;;;;;;5031542;28;20037;-77
2022/06/15 08:06:14;;;;;;;7.72;1.75;;;16.50;99.90;;;;;;5039133;28;20118;-80
2022/06/15 08:08:40;;;;;;;133.27;112.72;;;16.60;99.90;;;;;;5037912;28;20041;-78
2022/06/15 08:11:05;;;;;;;8.70;5.47;;;16.70;99.90;;;;;;5037594;28;20049;-77
2022/06/15 08:13:31;;;;;;;5.80;2.05;;;16.80;99.90;;;;;;5035274;28;20052;-77
2022/06/15 08:15:58;;;;;;;4.38;1.60;;;16.90;99.90;;;;;;5019688;28;20049;-77
2022/06/15 08:18:27;;;;;;;6.43;2.00;;;16.80;99.90;;;;;;5041560;28;20172;-78
2022/06/15 08:20:57;;;;;;;5.28;1.65;;;16.90;99.90;;;;;;5032679;28;20057;-78
2022/06/15 08:23:26;;;;;;;4.63;1.42;;;16.90;99.90;;;;;;5031950;28;20412;-78
2022/06/15 08:25:56;;;;;;;4.22;1.67;;;17.30;99.90;;;;;;5040012;28;20145;-79
2022/06/15 08:28:25;;;;;;;6.88;1.83;;;17.00;99.90;;;;;;5040287;28;20037;-78
2022/06/15 08:30:52;;;;;;;4.75;2.03;;;17.20;99.90;;;;;;5036698;28;20656;-78
2022/06/15 08:33:18;;;;;;;5.95;1.92;;;17.20;99.90;;;;;;5029007;28;20507;-77
2022/06/15 08:35:44;;;;;;;4.22;1.40;;;17.30;99.90;;;;;;5040220;28;20041;-78
2022/06/15 08:38:12;;;;;;;5.30;1.65;;;17.30;99.90;;;;;;5039201;28;20107;-78
2022/06/15 08:40:48;;;;;;;5.55;1.88;;;17.40;99.90;;;;;;5023946;28;20073;-79
2022/06/15 08:43:26;;;;;;;8.60;1.63;;;17.40;99.90;;;;;;5037362;28;20116;-78
2022/06/15 08:45:57;;;;;;;3.80;1.50;;;17.70;99.90;;;;;;5036244;28;20110;-78
2022/06/15 08:48:39;;;;;;;8.55;1.90;;;17.60;99.90;;;;;;5011152;28;20476;-78
2022/06/15 08:51:27;;;;;;;3.95;1.75;;;17.60;99.90;;;;;;5012773;28;20042;-79
2022/06/15 08:54:04;;;;;;;4.90;1.55;;;17.70;99.90;;;;;;5039273;28;20505;-78
2022/06/15 08:56:51;;;;;;;3.58;1.50;;;18.20;99.90;;;;;;5036335;28;20075;-78
2022/06/15 08:59:49;;;;;;;4.22;1.98;;;18.10;99.90;;;;;;5038201;28;20076;-77
2022/06/15 09:02:31;;;;;;;3.35;1.60;;;17.90;99.90;;;;;;5036739;28;20049;-79
2022/06/15 09:05:30;;;;;;;4.50;2.00;;;17.90;99.90;;;;;;5020917;28;20044;-80
2022/06/15 09:08:43;;;;;;;4.10;1.38;;;18.00;99.90;;;;;;5037324;28;20048;-80
2022/06/15 09:11:30;;;;;;;6.82;1.88;;;18.00;99.90;;;;;;5036840;28;20045;-78
2022/06/15 09:14:22;;;;;;;5.63;1.67;;;18.10;99.90;;;;;;5036704;28;20087;-80
2022/06/15 09:17:03;;;;;;;7.68;1.77;;;18.30;99.90;;;;;;5011320;28;20040;-79
2022/06/15 09:19:35;;;;;;;6.90;2.00;;;18.40;99.90;;;;;;5034002;28;20055;-80
2022/06/15 09:22:08;;;;;;;3.17;1.40;;;18.30;99.90;;;;;;5039191;28;20505;-80
2022/06/15 09:24:47;;;;;;;4.78;1.73;;;18.40;99.90;;;;;;5043753;28;20044;-78
2022/06/15 09:27:40;;;;;;;3.90;1.40;;;18.50;99.90;;;;;;5039289;28;20095;-79
2022/06/15 09:30:09;;;;;;;6.63;1.70;;;18.50;99.90;;;;;;5044021;28;20048;-78
2022/06/15 09:32:39;;;;;;;3.83;1.27;;;18.60;99.90;;;;;;5043367;28;20122;-78
2022/06/15 09:35:24;;;;;;;6.38;1.15;;;18.70;99.90;;;;;;5034057;28;20050;-79
2022/06/15 09:37:53;;;;;;;3.78;1.10;;;19.20;99.90;;;;;;5034666;28;20056;-78
2022/06/15 09:40:20;;;;;;;2.20;1.10;;;19.50;99.90;;;;;;5044664;28;20044;-79
2022/06/15 09:43:31;;;;;;;3.20;1.20;;;19.00;99.90;;;;;;5021479;28;20123;-79
2022/06/15 09:46:24;;;;;;;3.17;1.52;;;19.00;99.90;;;;;;5009879;28;20050;-78
2022/06/15 09:49:01;;;;;;;9.05;1.48;;;19.00;99.90;;;;;;5034853;28;20048;-78
2022/06/15 09:51:29;;;;;;;5.85;1.67;;;19.00;99.90;;;;;;5041652;28;20041;-79
2022/06/15 09:54:17;;;;;;;5.50;1.63;;;19.00;99.90;;;;;;5015930;28;20050;-78
2022/06/15 09:56:43;;;;;;;4.28;1.25;;;18.90;99.90;;;;;;5024745;28;20481;-78
2022/06/15 09:59:14;;;;;;;7.28;1.70;;;18.90;99.90;;;;;;5034423;28;20053;-79
2022/06/15 10:01:45;;;;;;;8.77;1.65;;;18.80;99.90;;;;;;5042405;28;20169;-77
2022/06/15 10:04:23;;;;;;;4.50;1.80;;;18.80;99.90;;;;;;5017512;28;20045;-76
2022/06/15 10:06:55;;;;;;;3.33;1.58;;;18.80;99.90;;;;;;5042680;28;20468;-77
2022/06/15 10:09:32;;;;;;;4.57;1.60;;;19.10;99.90;;;;;;5039424;28;20041;-79
2022/06/15 10:15:17;;;;;;;4.97;1.75;;;18.70;99.90;;;;;;5039937;28;20049;-78
2022/06/15 10:17:51;;;;;;;4.78;2.30;;;18.80;99.90;;;;;;5044852;28;20152;-77
2022/06/15 10:20:35;;;;;;;5.93;1.98;;;19.10;99.90;;;;;;5038596;28;20128;-79
2022/06/15 10:23:05;;;;;;;3.10;1.42;;;19.10;99.90;;;;;;5038749;28;20112;-79
2022/06/15 10:25:36;;;;;;;8.68;1.75;;;19.20;99.90;;;;;;5032724;28;20041;-79
2022/06/15 10:28:30;;;;;;;7.28;1.52;;;19.20;99.90;;;;;;5040305;28;20059;-78
2022/06/15 10:31:04;;;;;;;4.50;1.23;;;19.40;99.90;;;;;;5030648;28;20053;-79
2022/06/15 10:33:34;;;;;;;;;;;19.40;99.90;;;;;;5020705;28;20045;-79
2022/06/15 10:36:01;;;;;;;8.05;1.25;;;19.60;99.90;;;;;;5042030;28;19931;-79
2022/06/15 10:38:27;;;;;;;4.55;1.48;;;19.60;99.90;;;;;;5040505;28;20041;-79
2022/06/15 10:43:47;;;;;;;4.68;1.40;;;19.60;99.90;;;;;;5040593;28;20045;-78
2022/06/15 10:46:13;;;;;;;3.95;1.40;;;19.70;99.90;;;;;;5041016;28;20036;-78
2022/06/15 10:48:52;;;;;;;4.20;1.33;;;19.80;99.90;;;;;;5041372;28;20409;-79
2022/06/15 10:51:35;;;;;;;3.97;1.45;;;19.70;99.90;;;;;;5042333;28;20045;-80
2022/06/15 10:54:22;;;;;;;6.60;1.73;;;19.80;99.90;;;;;;5038489;28;20076;-79
2022/06/15 11:02:28;;;;;;;7.35;3.88;;;19.80;99.90;;;;;;5039825;28;20501;-78
2022/06/15 11:05:09;;;;;;;2.83;1.20;;;19.80;99.90;;;;;;5022272;28;20042;-79
2022/06/15 11:07:44;;;;;;;4.03;1.38;;;19.70;99.90;;;;;;5034570;28;20053;-81
2022/06/15 11:10:31;;;;;;;4.28;0.95;;;19.80;99.90;;;;;;5043295;28;20041;-78
2022/06/15 11:13:01;;;;;;;4.72;1.02;;;19.90;99.90;;;;;;5042232;28;20382;-78
2022/06/15 11:18:01;;;;;;;3.72;1.00;;;20.10;99.90;;;;;;5038140;28;20080;-78
2022/06/15 11:18:32;;;;;;;6.35;1.20;;;20.20;99.90;;;;;;5036563;28;20163;-78
2022/06/15 11:21:19;;;;;;;5.97;1.10;;;20.30;99.90;;;;;;5036146;28;20041;-78
2022/06/15 11:23:55;;;;;;;5.50;0.75;;;20.30;99.90;;;;;;5033350;28;20064;-78
2022/06/15 11:29:41;;;;;;;4.35;1.50;;;20.30;99.90;;;;;;5037172;28;20140;-78
2022/06/15 11:32:12;;;;;;;1.42;0.70;;;20.50;99.90;;;;;;5016951;28;20091;-78
2022/06/15 11:34:47;;;;;;;3.15;0.98;;;20.60;99.90;;;;;;5025180;28;20067;-80
2022/06/15 11:37:20;;;;;;;4.10;1.25;;;20.80;99.90;;;;;;5024191;28;20370;-79
2022/06/15 11:39:55;;;;;;;3.65;1.02;;;20.90;99.90;;;;;;5022443;28;20052;-79
2022/06/15 11:42:21;;;;;;;2.72;1.30;;;21.10;99.90;;;;;;5038460;28;20099;-79
2022/06/15 11:44:47;;;;;;;2.47;0.82;;;21.10;99.90;;;;;;5042476;28;20136;-78
2022/06/15 11:47:28;;;;;;;6.72;1.30;;;21.20;99.90;;;;;;5041283;28;20124;-79
2022/06/15 11:49:54;;;;;;;4.55;1.70;;;21.40;99.90;;;;;;5035349;28;20041;-78
2022/06/15 11:52:52;;;;;;;7.60;1.70;;;21.40;99.90;;;;;;5040545;28;20538;-79
2022/06/15 11:55:46;;;;;;;2.80;0.90;;;21.70;99.90;;;;;;5034431;28;20045;-79
2022/06/15 11:58:49;;;;;;;2.75;0.93;;;21.90;99.90;;;;;;5027995;28;20500;-77
2022/06/15 12:01:33;;;;;;;3.85;1.42;;;22.10;99.90;;;;;;5031944;28;20092;-77
2022/06/15 12:04:21;;;;;;;6.35;1.20;;;22.10;99.90;;;;;;5022013;28;20158;-78
2022/06/15 12:07:10;;;;;;;2.08;0.90;;;22.20;99.90;;;;;;5026918;28;20404;-78
2022/06/15 12:09:56;;;;;;;3.45;1.30;;;22.10;99.90;;;;;;5038693;28;20037;-78
2022/06/15 12:12:40;;;;;;;3.67;1.10;;;22.20;99.90;;;;;;5037797;28;20052;-79
2022/06/15 12:15:18;;;;;;;4.60;1.38;;;22.30;99.90;;;;;;5041751;28;20037;-79
2022/06/15 12:17:48;;;;;;;3.55;1.60;;;22.20;99.90;;;;;;5034397;28;20091;-77
2022/06/15 12:20:16;;;;;;;3.15;1.40;;;22.10;99.90;;;;;;5041032;28;20063;-78
2022/06/15 12:23:08;;;;;;;6.00;1.40;;;22.10;99.90;;;;;;5035258;28;20076;-78
2022/06/15 12:26:03;;;;;;;9.43;1.90;;;22.00;99.90;;;;;;5040885;28;20045;-78
2022/06/15 12:28:55;;;;;;;6.22;1.58;;;22.10;99.90;;;;;;5010330;28;20054;-76
2022/06/15 12:31:56;;;;;;;9.45;3.03;;;22.40;99.90;;;;;;5039198;28;20077;-77
2022/06/15 12:34:49;;;;;;;5.05;2.30;;;22.40;99.90;;;;;;5013898;28;20041;-78
2022/06/15 12:37:42;;;;;;;10.40;2.45;;;22.20;99.90;;;;;;5039078;28;20123;-78
2022/06/15 12:40:40;;;;;;;28.27;4.00;;;22.10;99.90;;;;;;5036830;28;20047;-78
2022/06/15 12:43:32;;;;;;;8.60;2.10;;;22.20;99.90;;;;;;5023015;28;20056;-78
2022/06/15 12:46:14;;;;;;;3.10;1.63;;;22.10;99.90;;;;;;5020603;28;20053;-77
2022/06/15 12:48:59;;;;;;;4.80;2.38;;;22.10;99.90;;;;;;5037284;28;20782;-79
2022/06/15 12:51:59;;;;;;;6.13;2.00;;;22.20;99.90;;;;;;5037542;28;20401;-78
2022/06/15 12:54:51;;;;;;;6.00;2.20;;;22.30;99.90;;;;;;5004970;28;20057;-76
2022/06/15 12:57:35;;;;;;;4.13;1.77;;;22.40;99.90;;;;;;5019005;28;20052;-75
2022/06/15 13:00:17;;;;;;;3.75;1.55;;;22.60;99.60;;;;;;5008154;28;20439;-77
2022/06/15 13:03:07;;;;;;;4.55;2.08;;;22.70;99.20;;;;;;5033389;28;20129;-77
2022/06/15 13:05:38;;;;;;;5.60;1.92;;;22.90;99.20;;;;;;5031407;28;20087;-78
2022/06/15 13:08:15;;;;;;;5.13;1.75;;;23.00;99.10;;;;;;5005886;28;20096;-78
2022/06/15 13:11:08;;;;;;;4.60;1.90;;;23.10;98.20;;;;;;5009031;28;20060;-78
2022/06/15 13:13:38;;;;;;;4.82;2.67;;;23.20;98.70;;;;;;5015899;28;20077;-77
2022/06/15 13:16:08;;;;;;;5.30;1.83;;;23.40;97.60;;;;;;5029249;28;20071;-76
2022/06/15 13:18:52;;;;;;;3.95;1.80;;;23.40;96.90;;;;;;5026387;28;20041;-77
2022/06/15 13:21:26;;;;;;;5.93;2.80;;;23.40;96.80;;;;;;5012380;28;20091;-77
2022/06/15 13:24:07;;;;;;;5.60;2.42;;;23.60;96.80;;;;;;5006151;28;20072;-77
2022/06/15 13:26:41;;;;;;;9.90;2.53;;;23.50;96.40;;;;;;5032906;28;20049;-77
2022/06/15 13:29:10;;;;;;;;;;;23.50;95.60;;;;;;5037495;28;20037;-76
2022/06/15 13:31:53;;;;;;;3.47;1.75;;;23.40;95.50;;;;;;5012414;28;19924;-75
2022/06/15 13:34:33;;;;;;;5.88;1.95;;;23.50;96.30;;;;;;5030604;28;20037;-75
2022/06/15 13:37:26;;;;;;;8.90;2.42;;;23.60;95.70;;;;;;5029336;28;20045;-76
2022/06/15 13:40:00;;;;;;;4.35;2.13;;;23.70;95.50;;;;;;5026894;28;20045;-76